Time;durP1;ratioP1;P1;durP2;ratioP2;P2;SDS_P1;SDS_P2;PMS_P1;PMS_P2;Temp;Humidity;BMP_temperature;BMP_pressure;BME280_temperature;BME280_humidity;BME280_pressure;Samples;Min_cycle;Max_cycle;Signal;HPM_P1;HPM_P2
2021/07/12 00:00:27;;;;;;;4.13;2.50;;;18.60;99.90;;;;;;4973299;28;20062;-90
2021/07/12 00:02:55;;;;;;;4.32;2.60;;;18.60;99.90;;;;;;4973906;28;20126;-91
2021/07/12 00:05:22;;;;;;;4.35;2.90;;;18.60;99.90;;;;;;4954923;28;20294;-89
2021/07/12 00:07:48;;;;;;;4.70;2.70;;;18.60;99.90;;;;;;4973465;28;20022;-91
2021/07/12 00:10:18;;;;;;;6.63;2.63;;;18.60;99.90;;;;;;4974206;28;20019;-90
2021/07/12 00:12:44;;;;;;;5.55;3.00;;;18.70;99.90;;;;;;4956597;28;20027;-89
2021/07/12 00:15:11;;;;;;;4.75;2.70;;;18.70;99.90;;;;;;4975101;28;20027;-90
2021/07/12 00:17:43;;;;;;;4.65;2.80;;;18.70;99.90;;;;;;4956493;28;20035;-90
2021/07/12 00:20:10;;;;;;;5.75;3.15;;;18.70;99.90;;;;;;4957473;28;20122;-90
2021/07/12 00:22:38;;;;;;;5.68;3.15;;;18.80;99.90;;;;;;4974482;28;20019;-90
2021/07/12 00:25:07;;;;;;;6.57;3.15;;;18.90;99.90;;;;;;4973672;28;20216;-90
2021/07/12 00:27:33;;;;;;;4.45;3.00;;;18.90;99.90;;;;;;4972511;28;20113;-90
2021/07/12 00:30:00;;;;;;;5.13;3.38;;;18.90;99.90;;;;;;4955377;28;20031;-90
2021/07/12 00:32:25;;;;;;;5.30;2.80;;;18.90;99.90;;;;;;4974354;28;20094;-90
2021/07/12 00:34:51;;;;;;;5.35;3.00;;;18.80;99.90;;;;;;4964001;28;20110;-90
2021/07/12 00:37:17;;;;;;;6.18;3.15;;;18.80;99.90;;;;;;4972688;28;20023;-89
2021/07/12 00:39:43;;;;;;;5.35;3.10;;;18.80;99.90;;;;;;4961932;28;20019;-90
2021/07/12 00:42:08;;;;;;;6.32;3.25;;;18.70;99.90;;;;;;4975098;28;20014;-90
2021/07/12 00:44:35;;;;;;;5.43;3.22;;;18.80;99.90;;;;;;4975360;28;20106;-90
2021/07/12 00:47:01;;;;;;;4.38;2.60;;;18.80;99.90;;;;;;4958342;28;20062;-90
2021/07/12 00:49:27;;;;;;;6.60;3.28;;;18.80;99.90;;;;;;4954988;28;20546;-90
2021/07/12 00:51:55;;;;;;;5.68;3.03;;;18.90;99.90;;;;;;4974087;28;20093;-90
2021/07/12 00:54:27;;;;;;;5.07;2.75;;;18.80;99.90;;;;;;4956080;28;20037;-91
2021/07/12 00:56:54;;;;;;;3.65;2.83;;;18.90;99.90;;;;;;4956931;28;20058;-90
2021/07/12 00:59:20;;;;;;;3.30;2.92;;;18.90;99.90;;;;;;4973833;28;20022;-90
2021/07/12 01:01:47;;;;;;;4.57;3.05;;;18.90;99.90;;;;;;4973908;28;20031;-91
2021/07/12 01:04:13;;;;;;;2.97;2.65;;;19.00;99.90;;;;;;4972345;28;20323;-90
2021/07/12 01:06:39;;;;;;;4.97;2.90;;;19.00;99.90;;;;;;4955203;28;20043;-90
2021/07/12 01:09:05;;;;;;;4.13;3.08;;;19.00;99.90;;;;;;4973379;28;20019;-90
2021/07/12 01:11:49;;;;;;;5.50;3.38;;;19.10;99.90;;;;;;4955573;28;20545;-90
2021/07/12 01:14:45;;;;;;;6.97;2.90;;;19.10;99.90;;;;;;4972698;28;20031;-90
2021/07/12 01:17:31;;;;;;;7.07;3.70;;;19.00;99.90;;;;;;4977506;28;20055;-90
2021/07/12 01:20:35;;;;;;;5.15;3.05;;;19.00;99.90;;;;;;4972613;28;20074;-89
2021/07/12 01:23:33;;;;;;;6.32;3.47;;;18.90;99.90;;;;;;4972770;28;20034;-90
2021/07/12 01:26:35;;;;;;;5.05;3.38;;;18.90;99.90;;;;;;4953664;28;20031;-90
2021/07/12 01:29:20;;;;;;;4.32;3.50;;;19.00;99.90;;;;;;4967913;28;20637;-90
2021/07/12 01:32:06;;;;;;;;;;;19.10;99.90;;;;;;4966952;28;20106;-90
2021/07/12 01:34:50;;;;;;;5.47;3.05;;;19.10;99.90;;;;;;4956098;28;19909;-90
2021/07/12 01:37:51;;;;;;;6.40;3.40;;;19.10;99.90;;;;;;4956403;28;20554;-89
2021/07/12 01:40:25;;;;;;;4.50;3.25;;;19.00;99.90;;;;;;4953655;28;20298;-90
2021/07/12 01:43:02;;;;;;;4.05;3.10;;;19.00;99.90;;;;;;4955264;28;20026;-90
2021/07/12 01:45:35;;;;;;;5.05;3.38;;;19.00;99.90;;;;;;4973222;28;20199;-90
2021/07/12 01:48:09;;;;;;;4.93;3.17;;;19.00;99.90;;;;;;4953715;28;20027;-90
2021/07/12 01:50:51;;;;;;;6.13;3.47;;;19.10;99.90;;;;;;4955320;28;20399;-89
2021/07/12 01:53:34;;;;;;;4.38;3.00;;;19.10;99.90;;;;;;4973606;28;20023;-89
2021/07/12 01:56:12;;;;;;;6.50;3.40;;;19.20;99.90;;;;;;4941577;28;20476;-90
2021/07/12 01:58:43;;;;;;;7.68;3.33;;;19.20;99.90;;;;;;4954783;28;20121;-90
2021/07/12 02:01:11;;;;;;;6.05;3.20;;;19.20;99.90;;;;;;4955925;28;20031;-90
2021/07/12 02:03:37;;;;;;;6.82;3.40;;;19.20;99.90;;;;;;4940026;28;20058;-90
2021/07/12 02:06:06;;;;;;;7.07;3.33;;;19.20;99.90;;;;;;4971904;28;20043;-90
2021/07/12 02:08:33;;;;;;;6.18;3.80;;;19.20;99.90;;;;;;4972217;28;20015;-90
2021/07/12 02:11:00;;;;;;;6.63;3.83;;;19.00;99.90;;;;;;4958403;28;20031;-90
2021/07/12 02:13:31;;;;;;;6.03;3.60;;;19.00;99.90;;;;;;4976488;28;20034;-90
2021/07/12 02:16:02;;;;;;;7.07;4.05;;;19.00;99.90;;;;;;4961114;28;20179;-90
2021/07/12 02:18:33;;;;;;;6.63;3.63;;;19.10;99.90;;;;;;4975096;28;20023;-90
2021/07/12 02:21:00;;;;;;;5.65;3.83;;;19.20;99.90;;;;;;4958995;28;20031;-90
2021/07/12 02:23:27;;;;;;;4.65;3.20;;;19.20;99.90;;;;;;4961851;28;20082;-90
2021/07/12 02:25:54;;;;;;;6.05;3.10;;;19.20;99.90;;;;;;4975407;28;20171;-90
2021/07/12 02:28:23;;;;;;;4.13;2.90;;;19.10;99.90;;;;;;4974979;28;20420;-90
2021/07/12 02:30:50;;;;;;;4.80;3.22;;;19.10;99.90;;;;;;4960417;28;20113;-91
2021/07/12 02:33:18;;;;;;;4.63;3.15;;;19.00;99.90;;;;;;4978645;28;20031;-91
2021/07/12 02:35:44;;;;;;;5.60;2.97;;;19.00;99.90;;;;;;4976856;28;20057;-90
2021/07/12 02:38:10;;;;;;;6.03;3.22;;;18.90;99.90;;;;;;4958215;28;20487;-90
2021/07/12 02:40:37;;;;;;;8.15;2.92;;;18.90;99.90;;;;;;4959140;28;20027;-90
2021/07/12 02:43:07;;;;;;;5.22;3.08;;;18.90;99.90;;;;;;4977379;28;20023;-89
2021/07/12 02:45:34;;;;;;;6.07;3.55;;;18.90;99.90;;;;;;4974937;28;20039;-90
2021/07/12 02:48:00;;;;;;;5.53;2.83;;;18.80;99.90;;;;;;4975525;28;20018;-90
2021/07/12 02:50:28;;;;;;;5.22;3.30;;;18.90;99.90;;;;;;4978323;28;20007;-90
2021/07/12 02:53:08;;;;;;;8.75;3.70;;;18.80;99.90;;;;;;4975477;28;20350;-90
2021/07/12 02:55:33;;;;;;;5.65;3.10;;;18.80;99.90;;;;;;4956659;28;20503;-90
2021/07/12 02:58:00;;;;;;;5.68;2.90;;;18.80;99.90;;;;;;4973896;28;20025;-90
2021/07/12 03:00:25;;;;;;;4.35;3.00;;;18.80;99.90;;;;;;4977650;28;20034;-90
2021/07/12 03:02:51;;;;;;;5.75;3.22;;;18.80;99.90;;;;;;4977132;28;20396;-90
2021/07/12 03:05:17;;;;;;;6.03;2.90;;;19.00;99.90;;;;;;4959430;28;20129;-90
2021/07/12 03:08:00;;;;;;;3.58;2.83;;;19.00;99.90;;;;;;4961778;28;20026;-90
2021/07/12 03:10:30;;;;;;;5.95;3.22;;;18.90;99.90;;;;;;4976746;28;20022;-90
2021/07/12 03:12:58;;;;;;;4.25;3.08;;;18.90;99.90;;;;;;4958279;28;20054;-91
2021/07/12 03:15:44;;;;;;;5.85;2.90;;;18.90;99.90;;;;;;4961830;28;20026;-91
2021/07/12 03:18:26;;;;;;;5.70;3.50;;;19.00;99.90;;;;;;4974937;28;20058;-90
2021/07/12 03:20:54;;;;;;;8.07;3.72;;;19.00;99.90;;;;;;4975435;28;20030;-90
2021/07/12 03:23:21;;;;;;;4.32;3.22;;;19.00;99.90;;;;;;4975410;28;20042;-90
2021/07/12 03:25:52;;;;;;;8.75;3.38;;;19.00;99.90;;;;;;4963367;28;20031;-91
2021/07/12 03:28:19;;;;;;;5.82;3.30;;;19.00;99.90;;;;;;4947803;28;20019;-90
2021/07/12 03:30:49;;;;;;;5.55;3.65;;;18.90;99.90;;;;;;4975063;28;20472;-91
2021/07/12 03:33:19;;;;;;;5.32;3.40;;;18.80;99.90;;;;;;4958527;28;20031;-90
2021/07/12 03:35:48;;;;;;;4.03;3.28;;;18.90;99.90;;;;;;4957423;28;20361;-90
2021/07/12 03:38:17;;;;;;;7.47;3.63;;;19.00;99.90;;;;;;4976970;28;20047;-90
2021/07/12 03:40:47;;;;;;;6.20;3.70;;;19.00;99.90;;;;;;4973721;28;20031;-90
2021/07/12 03:43:15;;;;;;;5.72;4.13;;;18.90;99.90;;;;;;4943890;28;20027;-90
2021/07/12 03:45:41;;;;;;;6.43;3.53;;;18.80;99.90;;;;;;4946329;28;20035;-90
2021/07/12 03:48:08;;;;;;;6.03;4.05;;;18.80;99.90;;;;;;4972000;28;20266;-90
2021/07/12 03:50:34;;;;;;;6.05;3.70;;;18.90;99.90;;;;;;4973290;28;20086;-90
2021/07/12 03:53:02;;;;;;;6.97;3.47;;;18.80;99.90;;;;;;4956779;28;20025;-90
2021/07/12 03:55:31;;;;;;;6.28;4.13;;;18.90;99.90;;;;;;4957785;28;20030;-90
2021/07/12 03:57:58;;;;;;;8.23;4.15;;;18.90;99.90;;;;;;4956985;28;20073;-91
2021/07/12 04:00:29;;;;;;;8.07;4.28;;;18.90;99.90;;;;;;4956384;28;20022;-91
2021/07/12 04:02:55;;;;;;;11.70;4.57;;;18.90;99.90;;;;;;4959990;28;20019;-90
2021/07/12 04:05:25;;;;;;;10.82;4.30;;;18.90;99.90;;;;;;4954470;28;20034;-90
2021/07/12 04:07:52;;;;;;;9.57;4.60;;;18.90;99.90;;;;;;4973954;28;20031;-91
2021/07/12 04:10:19;;;;;;;10.40;4.78;;;18.80;99.90;;;;;;4956306;28;20030;-90
2021/07/12 04:12:46;;;;;;;13.02;4.63;;;18.80;99.90;;;;;;4956166;28;20109;-89
2021/07/12 04:15:13;;;;;;;9.68;4.78;;;18.80;99.90;;;;;;4974388;28;20031;-90
2021/07/12 04:17:43;;;;;;;11.52;4.80;;;18.80;99.90;;;;;;4973070;28;20043;-90
2021/07/12 04:20:10;;;;;;;15.40;4.72;;;18.80;99.90;;;;;;4973452;28;20026;-90
2021/07/12 04:22:38;;;;;;;11.93;4.50;;;18.80;99.90;;;;;;4975049;28;20026;-91
2021/07/12 04:25:05;;;;;;;7.80;3.90;;;18.80;99.90;;;;;;4973745;28;20701;-90
2021/07/12 04:27:31;;;;;;;12.48;5.57;;;18.80;99.90;;;;;;4958163;28;20018;-91
2021/07/12 04:29:57;;;;;;;13.73;4.63;;;18.80;99.90;;;;;;4957749;28;20038;-90
2021/07/12 04:32:23;;;;;;;15.60;4.63;;;18.80;99.90;;;;;;4955405;28;20518;-90
2021/07/12 04:34:49;;;;;;;7.95;4.30;;;18.80;99.90;;;;;;4956872;28;20037;-90
2021/07/12 04:37:15;;;;;;;14.73;4.90;;;18.90;99.90;;;;;;4956698;28;20546;-90
2021/07/12 04:39:41;;;;;;;11.10;4.40;;;18.90;99.90;;;;;;4973657;28;20034;-90
2021/07/12 04:42:06;;;;;;;7.40;4.10;;;18.80;99.90;;;;;;4957666;28;20440;-90
2021/07/12 04:44:32;;;;;;;10.60;5.13;;;18.80;99.90;;;;;;4970767;28;20102;-89
2021/07/12 04:47:00;;;;;;;11.38;5.80;;;18.80;99.90;;;;;;4960524;28;20257;-88
2021/07/12 04:49:26;;;;;;;15.30;6.32;;;18.50;99.90;;;;;;4941277;28;20023;-88
2021/07/12 04:51:52;;;;;;;16.13;7.30;;;18.20;99.90;;;;;;4954889;28;20297;-89
2021/07/12 04:54:18;;;;;;;10.98;7.28;;;18.00;99.90;;;;;;4954587;28;20678;-88
2021/07/12 04:56:44;;;;;;;9.75;6.57;;;18.00;99.90;;;;;;4971529;28;20019;-87
2021/07/12 04:59:11;;;;;;;7.93;4.53;;;17.90;99.90;;;;;;4972125;28;20027;-88
2021/07/12 05:01:37;;;;;;;6.43;3.65;;;17.80;99.90;;;;;;4972102;28;20022;-91
2021/07/12 05:04:05;;;;;;;6.22;4.18;;;17.60;99.90;;;;;;4972033;28;20038;-89
2021/07/12 05:06:32;;;;;;;4.65;2.40;;;17.50;99.90;;;;;;4971547;28;20031;-89
2021/07/12 05:08:58;;;;;;;4.57;2.70;;;17.50;99.90;;;;;;4954364;28;20023;-89
2021/07/12 05:11:26;;;;;;;6.50;2.33;;;17.40;99.90;;;;;;4971383;28;20113;-89
2021/07/12 05:13:52;;;;;;;5.55;1.73;;;17.30;99.90;;;;;;4953364;28;20408;-88
2021/07/12 05:16:20;;;;;;;6.47;1.70;;;17.20;99.90;;;;;;4971153;28;20182;-88
2021/07/12 05:18:46;;;;;;;12.38;3.80;;;17.10;99.90;;;;;;4953147;28;20026;-87
2021/07/12 05:21:13;;;;;;;12.20;6.18;;;16.90;99.90;;;;;;4970441;28;20134;-87
2021/07/12 05:23:38;;;;;;;6.97;2.42;;;16.90;99.90;;;;;;4970124;28;20027;-87
2021/07/12 05:26:05;;;;;;;6.95;2.50;;;16.70;99.90;;;;;;4970592;28;20031;-86
2021/07/12 05:28:36;;;;;;;5.88;2.78;;;16.80;99.90;;;;;;4970408;28;20073;-86
2021/07/12 05:31:01;;;;;;;8.00;3.35;;;16.80;99.90;;;;;;4967884;28;20023;-86
2021/07/12 05:33:27;;;;;;;12.23;3.40;;;16.90;99.90;;;;;;4969991;28;20122;-86
2021/07/12 05:35:53;;;;;;;9.02;3.30;;;16.90;99.90;;;;;;4970567;28;20023;-86
2021/07/12 05:38:19;;;;;;;13.68;3.40;;;16.80;99.90;;;;;;4970475;28;20033;-87
2021/07/12 05:40:44;;;;;;;8.90;3.30;;;16.80;99.90;;;;;;4953677;28;20026;-88
2021/07/12 05:43:10;;;;;;;14.38;3.15;;;16.90;99.90;;;;;;4970660;28;20028;-86
2021/07/12 05:45:36;;;;;;;7.72;3.22;;;16.90;99.90;;;;;;4971121;28;20035;-87
2021/07/12 05:48:01;;;;;;;8.70;3.75;;;17.00;99.90;;;;;;4967641;28;20054;-88
2021/07/12 05:50:27;;;;;;;11.68;3.60;;;17.00;99.90;;;;;;4970799;28;20029;-88
2021/07/12 05:52:53;;;;;;;10.40;3.40;;;17.00;99.90;;;;;;4970595;28;20015;-89
2021/07/12 05:55:19;;;;;;;9.57;3.35;;;17.10;99.90;;;;;;4953361;28;20031;-87
2021/07/12 05:57:45;;;;;;;8.05;3.45;;;17.20;99.90;;;;;;4970928;28;20023;-88
2021/07/12 06:00:12;;;;;;;7.18;3.60;;;17.20;99.90;;;;;;4970848;28;20031;-88
2021/07/12 06:02:39;;;;;;;7.40;3.70;;;17.30;99.90;;;;;;4971068;28;20023;-88
2021/07/12 06:05:06;;;;;;;11.20;4.05;;;17.30;99.90;;;;;;4970902;28;20031;-88
2021/07/12 06:07:32;;;;;;;8.13;4.07;;;17.40;99.90;;;;;;4970649;28;20050;-88
2021/07/12 06:09:57;;;;;;;13.55;3.70;;;17.40;99.90;;;;;;4970473;28;20081;-88
2021/07/12 06:12:23;;;;;;;8.32;2.95;;;17.40;99.90;;;;;;4970683;28;20579;-88
2021/07/12 06:14:49;;;;;;;6.55;3.20;;;17.60;99.90;;;;;;4952851;28;20031;-87
2021/07/12 06:17:14;;;;;;;10.45;3.00;;;17.60;99.90;;;;;;4970130;28;21501;-88
2021/07/12 06:19:40;;;;;;;8.63;2.92;;;17.70;99.90;;;;;;4970208;28;20030;-88
2021/07/12 06:22:07;;;;;;;6.55;2.45;;;17.70;99.90;;;;;;4969810;28;20562;-85
2021/07/12 06:24:33;;;;;;;8.85;3.33;;;17.60;99.90;;;;;;4970247;28;20038;-82
2021/07/12 06:26:58;;;;;;;8.52;3.35;;;17.50;99.90;;;;;;4970414;28;20035;-79
2021/07/12 06:29:25;;;;;;;11.88;3.35;;;17.60;99.90;;;;;;4967087;28;20424;-77
2021/07/12 06:31:50;;;;;;;5.70;3.05;;;17.60;99.90;;;;;;4967577;28;20031;-77
2021/07/12 06:34:16;;;;;;;9.18;3.30;;;17.70;99.90;;;;;;4966343;28;20030;-78
2021/07/12 06:36:42;;;;;;;10.65;3.75;;;17.70;99.90;;;;;;4968740;28;20384;-78
2021/07/12 06:39:08;;;;;;;8.55;3.03;;;17.70;99.90;;;;;;4967120;28;20536;-78
2021/07/12 06:41:34;;;;;;;9.32;2.80;;;17.70;99.90;;;;;;4958274;28;20026;-78
2021/07/12 06:44:00;;;;;;;11.48;3.42;;;17.70;99.90;;;;;;4966983;28;20042;-78
2021/07/12 06:46:25;;;;;;;8.98;3.05;;;17.80;99.90;;;;;;4968826;28;20026;-82
2021/07/12 06:48:51;;;;;;;13.35;3.55;;;17.80;99.90;;;;;;4969680;28;20395;-82
2021/07/12 06:51:18;;;;;;;10.75;3.03;;;17.90;99.90;;;;;;4969550;28;20038;-80
2021/07/12 06:53:44;;;;;;;10.43;3.30;;;17.80;99.90;;;;;;4969798;28;20022;-80
2021/07/12 06:56:12;;;;;;;14.98;3.40;;;17.90;99.90;;;;;;4972526;28;20026;-81
2021/07/12 06:58:38;;;;;;;15.38;4.40;;;17.90;99.90;;;;;;4971341;28;20023;-81
2021/07/12 07:01:03;;;;;;;11.05;4.30;;;17.90;99.90;;;;;;4974958;28;20027;-82
2021/07/12 07:03:29;;;;;;;10.85;3.65;;;17.90;99.90;;;;;;4972643;28;20193;-82
2021/07/12 07:05:55;;;;;;;13.02;4.13;;;17.90;99.90;;;;;;4972718;28;20039;-81
2021/07/12 07:08:20;;;;;;;10.02;4.35;;;18.00;99.90;;;;;;4972776;28;20175;-81
2021/07/12 07:10:46;;;;;;;18.05;4.55;;;18.00;99.90;;;;;;4955547;28;20453;-80
2021/07/12 07:13:12;;;;;;;7.53;3.35;;;18.00;99.90;;;;;;4972844;28;20424;-81
2021/07/12 07:15:37;;;;;;;12.18;4.32;;;17.90;99.90;;;;;;4972948;28;20049;-81
2021/07/12 07:18:03;;;;;;;8.88;3.40;;;17.90;99.90;;;;;;4973383;28;20506;-81
2021/07/12 07:20:29;;;;;;;11.77;3.97;;;17.90;99.90;;;;;;4972559;28;20163;-80
2021/07/12 07:22:55;;;;;;;11.82;3.70;;;18.00;99.90;;;;;;4972699;28;20506;-80
2021/07/12 07:25:20;;;;;;;9.20;3.20;;;18.10;99.90;;;;;;4972051;28;20022;-79
2021/07/12 07:27:46;;;;;;;10.68;3.30;;;18.10;99.90;;;;;;4974735;28;20423;-80
2021/07/12 07:30:13;;;;;;;12.10;3.20;;;18.20;99.90;;;;;;4973237;28;20036;-80
2021/07/12 07:32:39;;;;;;;9.60;3.58;;;18.30;99.90;;;;;;4973345;28;20026;-74
2021/07/12 07:35:07;;;;;;;10.70;3.10;;;18.30;99.90;;;;;;4972861;28;20023;-80
2021/07/12 07:37:33;;;;;;;12.82;3.30;;;18.30;99.90;;;;;;4973892;28;20026;-82
2021/07/12 07:39:59;;;;;;;9.57;2.88;;;18.20;99.90;;;;;;4972340;28;20388;-80
2021/07/12 07:42:25;;;;;;;9.05;2.22;;;18.10;99.90;;;;;;4972772;28;20033;-78
2021/07/12 07:44:51;;;;;;;7.65;2.63;;;18.10;99.90;;;;;;4971890;28;20026;-89
2021/07/12 07:47:18;;;;;;;5.80;2.40;;;18.20;99.90;;;;;;4971800;28;20030;-91
2021/07/12 07:49:44;;;;;;;8.93;2.15;;;18.30;99.90;;;;;;4976272;28;20079;-91
2021/07/12 07:52:10;;;;;;;9.45;2.53;;;18.60;99.90;;;;;;4987610;28;20076;-91
2021/07/12 07:54:36;;;;;;;10.25;2.30;;;18.60;99.90;;;;;;4954917;28;20027;-91
2021/07/12 07:57:02;;;;;;;6.85;1.95;;;18.50;99.90;;;;;;4972165;28;20651;-88
2021/07/12 07:59:28;;;;;;;8.32;2.67;;;18.60;99.90;;;;;;4954816;28;20027;-89
2021/07/12 08:01:53;;;;;;;9.05;1.80;;;18.80;99.90;;;;;;4955832;28;20069;-89
2021/07/12 08:04:19;;;;;;;7.40;1.85;;;18.90;99.90;;;;;;4972638;28;20094;-89
2021/07/12 08:06:45;;;;;;;12.07;2.13;;;18.90;99.90;;;;;;4954237;28;20035;-89
2021/07/12 08:09:11;;;;;;;6.13;1.77;;;18.90;99.90;;;;;;4972540;28;20474;-88
2021/07/12 08:11:37;;;;;;;9.43;2.47;;;18.60;99.90;;;;;;4972652;28;20157;-88
2021/07/12 08:14:03;;;;;;;6.82;2.10;;;18.40;99.90;;;;;;4972506;28;20483;-88
2021/07/12 08:16:29;;;;;;;9.02;1.80;;;18.40;99.90;;;;;;4954790;28;20411;-89
2021/07/12 08:18:55;;;;;;;5.97;2.00;;;18.60;99.90;;;;;;4972050;28;20027;-89
2021/07/12 08:21:21;;;;;;;7.25;2.03;;;18.60;99.90;;;;;;4972045;28;20199;-88
2021/07/12 08:23:48;;;;;;;6.57;1.50;;;18.50;99.90;;;;;;4953652;28;20082;-89
2021/07/12 08:26:14;;;;;;;6.20;1.67;;;18.30;99.90;;;;;;4954677;28;20041;-89
2021/07/12 08:28:41;;;;;;;4.95;1.40;;;18.40;99.90;;;;;;4971841;28;20399;-88
2021/07/12 08:31:09;;;;;;;6.85;1.60;;;18.50;99.90;;;;;;4971914;28;20074;-89
2021/07/12 08:33:35;;;;;;;4.25;1.23;;;18.60;99.90;;;;;;4954516;28;20022;-88
2021/07/12 08:36:01;;;;;;;6.13;1.30;;;18.80;99.90;;;;;;4971893;28;20089;-89
2021/07/12 08:38:27;;;;;;;7.57;1.52;;;18.90;99.90;;;;;;4971897;28;20023;-77
2021/07/12 08:40:55;;;;;;;9.00;1.95;;;19.10;99.90;;;;;;4965730;28;20022;-77
2021/07/12 08:43:21;;;;;;;7.50;1.30;;;19.10;99.90;;;;;;4971419;28;20557;-77
2021/07/12 08:45:47;;;;;;;6.18;1.42;;;19.10;99.90;;;;;;4971308;28;20038;-76
2021/07/12 08:48:14;;;;;;;6.88;1.50;;;19.20;99.90;;;;;;4971164;28;20186;-76
2021/07/12 08:50:40;;;;;;;6.65;1.40;;;19.10;99.90;;;;;;4970298;28;20054;-76
2021/07/12 08:53:06;;;;;;;7.47;1.55;;;19.10;99.90;;;;;;4970866;28;20074;-76
2021/07/12 08:55:32;;;;;;;5.97;1.35;;;19.20;99.90;;;;;;4971163;28;20023;-76
2021/07/12 08:58:11;;;;;;;4.43;1.40;;;19.30;99.90;;;;;;4953490;28;20034;-76
2021/07/12 09:00:45;;;;;;;9.15;1.73;;;19.50;99.90;;;;;;4971189;28;20085;-76
2021/07/12 09:03:26;;;;;;;6.35;1.90;;;19.60;99.90;;;;;;4970692;28;20046;-76
2021/07/12 09:05:58;;;;;;;7.43;1.50;;;19.60;99.90;;;;;;4970893;28;20050;-76
2021/07/12 09:08:56;;;;;;;8.30;1.70;;;19.60;99.90;;;;;;4970878;28;20364;-76
2021/07/12 09:11:30;;;;;;;5.60;1.40;;;19.50;99.90;;;;;;4970815;28;20038;-76
2021/07/12 09:13:57;;;;;;;;;;;19.40;99.90;;;;;;4971116;28;20027;-76
2021/07/12 09:16:33;;;;;;;6.72;1.38;;;19.50;99.90;;;;;;4970433;28;19922;-76
2021/07/12 09:19:18;;;;;;;4.80;1.55;;;19.60;99.90;;;;;;4970340;28;20381;-76
2021/07/12 09:22:02;;;;;;;8.25;1.60;;;19.90;99.90;;;;;;4970668;28;20030;-77
2021/07/12 09:24:29;;;;;;;6.93;1.60;;;19.90;99.90;;;;;;4970593;28;20515;-76
2021/07/12 09:27:07;;;;;;;5.65;1.92;;;19.60;99.90;;;;;;4970079;28;20039;-76
2021/07/12 09:29:35;;;;;;;7.07;2.00;;;19.40;99.90;;;;;;4970573;28;20476;-77
2021/07/12 09:32:05;;;;;;;5.53;1.23;;;19.30;99.90;;;;;;4970031;28;20422;-77
2021/07/12 09:34:30;;;;;;;6.53;1.63;;;19.30;99.90;;;;;;4970580;28;20383;-76
2021/07/12 09:36:56;;;;;;;8.25;1.45;;;19.40;99.90;;;;;;4970437;28;20032;-76
2021/07/12 09:39:33;;;;;;;7.97;1.75;;;19.50;99.90;;;;;;4970427;28;20038;-76
2021/07/12 09:42:05;;;;;;;6.55;1.58;;;19.80;99.90;;;;;;4970575;28;20034;-76
2021/07/12 09:44:31;;;;;;;6.72;1.10;;;20.10;99.90;;;;;;4970399;28;20027;-76
2021/07/12 09:47:07;;;;;;;5.85;1.30;;;19.80;99.90;;;;;;4969674;28;20116;-76
2021/07/12 09:49:33;;;;;;;7.35;1.30;;;19.90;99.90;;;;;;4970114;28;20168;-76
2021/07/12 09:52:04;;;;;;;8.25;1.77;;;20.20;99.90;;;;;;4970337;28;20026;-76
2021/07/12 09:54:36;;;;;;;7.47;1.80;;;20.30;99.90;;;;;;4969672;28;20019;-76
2021/07/12 09:57:14;;;;;;;6.47;1.58;;;20.20;99.90;;;;;;4970312;28;20027;-77
2021/07/12 09:59:53;;;;;;;4.93;1.90;;;20.30;99.90;;;;;;4969988;28;20611;-77
2021/07/12 10:02:22;;;;;;;5.43;1.55;;;20.70;99.90;;;;;;4968868;28;20031;-76
2021/07/12 10:04:50;;;;;;;7.28;1.63;;;20.70;99.90;;;;;;4970036;28;20015;-76
2021/07/12 10:07:16;;;;;;;8.88;1.50;;;20.30;99.90;;;;;;4970323;28;20042;-76
2021/07/12 10:09:42;;;;;;;6.50;1.73;;;20.00;99.90;;;;;;4970241;28;20028;-77
2021/07/12 10:12:08;;;;;;;8.63;1.85;;;19.60;99.90;;;;;;4970331;28;20027;-78
2021/07/12 10:14:34;;;;;;;6.68;1.80;;;19.50;99.90;;;;;;4969874;28;20090;-77
2021/07/12 10:17:02;;;;;;;5.25;1.80;;;19.60;99.90;;;;;;4969931;28;20066;-77
2021/07/12 10:19:28;;;;;;;4.47;1.50;;;19.60;99.90;;;;;;4952359;28;20043;-77
2021/07/12 10:21:55;;;;;;;6.70;1.90;;;19.90;99.90;;;;;;4964271;28;20027;-78
2021/07/12 10:24:26;;;;;;;5.45;1.58;;;20.20;99.90;;;;;;4968888;28;20035;-79
2021/07/12 10:26:57;;;;;;;6.10;1.35;;;20.30;99.90;;;;;;4970073;28;20050;-78
2021/07/12 10:29:37;;;;;;;5.22;1.42;;;20.50;99.90;;;;;;4969940;28;20011;-78
2021/07/12 10:32:16;;;;;;;3.38;1.40;;;20.50;99.90;;;;;;4972584;28;20030;-78
2021/07/12 10:34:44;;;;;;;8.38;1.55;;;20.40;99.90;;;;;;4973487;28;20031;-78
2021/07/12 10:37:28;;;;;;;7.18;2.08;;;20.30;99.90;;;;;;4973014;28;20372;-78
2021/07/12 10:39:57;;;;;;;8.77;1.40;;;20.50;99.90;;;;;;4973372;28;20022;-78
2021/07/12 10:42:41;;;;;;;4.00;1.60;;;20.60;99.90;;;;;;4973331;28;20069;-77
2021/07/12 10:45:29;;;;;;;7.50;1.67;;;20.70;99.90;;;;;;4973850;28;20034;-78
2021/07/12 10:47:57;;;;;;;6.70;2.03;;;20.70;99.90;;;;;;4972984;28;20122;-77
2021/07/12 10:50:36;;;;;;;10.90;1.70;;;20.90;99.90;;;;;;4973204;28;20392;-78
2021/07/12 10:53:14;;;;;;;6.00;1.77;;;20.90;99.90;;;;;;4973055;28;20411;-77
2021/07/12 10:55:43;;;;;;;9.02;1.60;;;20.90;99.90;;;;;;4973084;28;20045;-77
2021/07/12 10:58:20;;;;;;;3.22;1.10;;;20.70;99.90;;;;;;4973415;28;20019;-78
2021/07/12 11:00:50;;;;;;;5.97;1.60;;;20.70;99.90;;;;;;4973134;28;20029;-78
2021/07/12 11:03:37;;;;;;;3.90;1.25;;;20.50;99.90;;;;;;4973004;28;20150;-77
2021/07/12 11:06:08;;;;;;;3.70;1.40;;;20.30;99.90;;;;;;4967730;28;20078;-76
2021/07/12 11:08:49;;;;;;;6.65;1.50;;;20.20;99.90;;;;;;4971057;28;20058;-77
2021/07/12 11:11:18;;;;;;;7.82;1.63;;;20.00;99.90;;;;;;4972777;28;20094;-77
2021/07/12 11:13:58;;;;;;;6.50;1.20;;;19.90;99.90;;;;;;4973214;28;20396;-77
2021/07/12 11:16:42;;;;;;;4.85;1.40;;;19.90;99.90;;;;;;4972857;28;20043;-77
2021/07/12 11:19:28;;;;;;;4.30;1.50;;;19.80;99.90;;;;;;4973086;28;20023;-77
2021/07/12 11:22:15;;;;;;;9.35;1.50;;;19.80;99.90;;;;;;4973202;28;20019;-77
2021/07/12 11:24:59;;;;;;;5.65;1.77;;;19.90;99.90;;;;;;4972683;28;20027;-80
2021/07/12 11:27:44;;;;;;;7.53;1.33;;;20.10;99.90;;;;;;4972719;28;20447;-78
2021/07/12 11:30:27;;;;;;;3.67;1.25;;;20.30;99.90;;;;;;4972651;28;20034;-78
2021/07/12 11:32:53;;;;;;;5.25;1.70;;;20.30;99.90;;;;;;4972789;28;20019;-78
2021/07/12 11:35:19;;;;;;;5.93;1.70;;;20.40;99.90;;;;;;4972850;28;20031;-78
2021/07/12 11:37:45;;;;;;;7.13;1.65;;;20.50;99.90;;;;;;4972996;28;20496;-77
2021/07/12 11:40:11;;;;;;;6.03;1.30;;;20.70;99.90;;;;;;4972749;28;20022;-79
2021/07/12 11:42:39;;;;;;;4.88;1.00;;;21.00;99.90;;;;;;4972146;28;20158;-77
2021/07/12 11:45:08;;;;;;;3.70;1.15;;;21.30;99.90;;;;;;4972703;28;20407;-78
2021/07/12 11:47:41;;;;;;;4.72;1.45;;;21.30;99.90;;;;;;4972366;28;20037;-77
2021/07/12 11:50:11;;;;;;;3.45;1.08;;;21.40;99.90;;;;;;4972501;28;20550;-77
2021/07/12 11:52:38;;;;;;;2.22;0.85;;;21.20;99.90;;;;;;4972369;28;20500;-78
2021/07/12 11:55:06;;;;;;;4.15;1.35;;;21.20;99.90;;;;;;4972562;28;20444;-77
2021/07/12 11:57:33;;;;;;;3.05;1.02;;;21.50;99.90;;;;;;4972468;28;20062;-76
2021/07/12 11:59:59;;;;;;;6.72;1.30;;;21.50;99.90;;;;;;4972972;28;20101;-79
2021/07/12 12:02:24;;;;;;;5.63;0.95;;;21.60;99.90;;;;;;4971939;28;20512;-77
2021/07/12 12:04:51;;;;;;;9.48;1.00;;;21.60;99.90;;;;;;4971544;28;20492;-77
2021/07/12 12:07:23;;;;;;;7.32;1.20;;;21.80;99.90;;;;;;4972079;28;20039;-77
2021/07/12 12:09:54;;;;;;;2.47;0.85;;;21.70;99.90;;;;;;4971912;28;20101;-77
2021/07/12 12:12:47;;;;;;;4.80;1.35;;;21.70;99.90;;;;;;4971980;28;20070;-77
2021/07/12 12:15:20;;;;;;;3.95;1.00;;;21.70;99.90;;;;;;4955744;28;20027;-78
2021/07/12 12:17:50;;;;;;;3.30;0.98;;;21.70;99.90;;;;;;4972517;28;20046;-77
2021/07/12 12:20:25;;;;;;;5.18;1.23;;;21.70;99.90;;;;;;4971712;28;20046;-78
2021/07/12 12:23:09;;;;;;;6.78;1.30;;;21.80;99.90;;;;;;4971900;28;20187;-77
2021/07/12 12:25:43;;;;;;;5.38;0.90;;;21.80;99.50;;;;;;4972120;28;20031;-79
2021/07/12 12:28:18;;;;;;;;;;;21.80;99.40;;;;;;4972282;28;20037;-78
2021/07/12 12:30:44;;;;;;;;;;;22.00;99.90;;;;;;4972353;28;19989;-78
2021/07/12 12:33:09;;;;;;;6.10;1.20;;;22.30;99.80;;;;;;4971808;28;20009;-78
2021/07/12 12:35:35;;;;;;;2.92;0.90;;;22.60;99.40;;;;;;4971375;28;20027;-78
2021/07/12 12:38:16;;;;;;;4.88;1.27;;;22.20;99.90;;;;;;4971949;28;20033;-79
2021/07/12 12:40:43;;;;;;;5.18;1.00;;;21.80;99.90;;;;;;4971048;28;20069;-81
2021/07/12 12:43:17;;;;;;;3.13;1.13;;;21.70;99.90;;;;;;4971300;28;20033;-79
2021/07/12 12:45:52;;;;;;;3.00;0.90;;;22.10;99.40;;;;;;4971085;28;20039;-80
2021/07/12 12:48:37;;;;;;;6.57;1.00;;;22.20;99.90;;;;;;4971527;28;20062;-80
2021/07/12 12:51:20;;;;;;;5.15;1.40;;;22.30;98.80;;;;;;4971108;28;20030;-80
2021/07/12 12:54:15;;;;;;;5.70;1.00;;;22.30;99.50;;;;;;4971059;28;20038;-80
2021/07/12 12:56:52;;;;;;;;;;;22.80;98.40;;;;;;4971222;28;20090;-79
2021/07/12 12:59:26;;;;;;;3.22;1.00;;;22.80;98.90;;;;;;4971385;28;19906;-80